Time;durP1;ratioP1;P1;durP2;ratioP2;P2;SDS_P1;SDS_P2;PMS_P1;PMS_P2;Temp;Humidity;BMP_temperature;BMP_pressure;BME280_temperature;BME280_humidity;BME280_pressure;Samples;Min_cycle;Max_cycle;Signal;HPM_P1;HPM_P2
2022/10/07 00:01:59;;;;;;;6.95;5.03;;;;;;;;;;5081772;28;20426;-81
2022/10/07 00:04:26;;;;;;;9.55;4.75;;;;;;;;;;5082635;28;20411;-81
2022/10/07 00:06:52;;;;;;;7.05;4.50;;;;;;;;;;5068272;28;20410;-81
2022/10/07 00:09:19;;;;;;;11.80;5.43;;;;;;;;;;5085575;28;20413;-80
2022/10/07 00:11:45;;;;;;;12.10;5.45;;;;;;;;;;5084660;28;20434;-81
2022/10/07 00:14:11;;;;;;;10.20;5.20;;;;;;;;;;5083926;28;20427;-81
2022/10/07 00:16:39;;;;;;;14.13;5.70;;;;;;;;;;5085487;28;20418;-82
2022/10/07 00:19:07;;;;;;;9.80;5.50;;;;;;;;;;5085472;28;20414;-81
2022/10/07 00:21:35;;;;;;;12.77;5.15;;;;;;;;;;5079605;28;20442;-83
2022/10/07 00:24:01;;;;;;;10.98;6.20;;;;;;;;;;5083073;28;20500;-82
2022/10/07 00:26:28;;;;;;;10.70;5.72;;;;;;;;;;5081574;27;20418;-82
2022/10/07 00:28:55;;;;;;;11.77;6.00;;;;;;;;;;5081554;28;20445;-83
2022/10/07 00:31:22;;;;;;;10.80;5.70;;;;;;;;;;5065048;28;20793;-83
2022/10/07 00:33:49;;;;;;;12.03;5.60;;;;;;;;;;5081944;28;20434;-81
2022/10/07 00:36:18;;;;;;;14.77;6.80;;;;;;;;;;5080001;28;20428;-83
2022/10/07 00:38:45;;;;;;;11.13;6.00;;;;;;;;;;5084274;28;20422;-81
2022/10/07 00:41:16;;;;;;;13.90;6.53;;;;;;;;;;5082100;28;20422;-81
2022/10/07 00:43:43;;;;;;;14.75;7.25;;;;;;;;;;5066267;28;20429;-81
2022/10/07 00:46:12;;;;;;;11.48;7.30;;;;;;;;;;5084585;28;20431;-81
2022/10/07 00:48:39;;;;;;;13.50;7.43;;;;;;;;;;5080145;28;20431;-81
2022/10/07 00:51:06;;;;;;;10.80;7.88;;;;;;;;;;5081821;27;20432;-81
2022/10/07 00:53:36;;;;;;;13.32;7.80;;;;;;;;;;5084629;28;20812;-81
2022/10/07 00:56:02;;;;;;;18.75;8.93;;;;;;;;;;5082763;27;20427;-81
2022/10/07 00:58:29;;;;;;;14.80;8.15;;;;;;;;;;5065403;28;20427;-81
2022/10/07 01:00:56;;;;;;;12.75;9.05;;;;;;;;;;5082309;28;20414;-80
2022/10/07 01:03:23;;;;;;;12.30;8.73;;;;;;;;;;5080858;28;20450;-81
2022/10/07 01:05:49;;;;;;;13.65;8.80;;;;;;;;;;5062733;28;20423;-81
2022/10/07 01:08:16;;;;;;;15.80;9.63;;;;;;;;;;5080780;28;20426;-82
2022/10/07 01:10:48;;;;;;;16.23;9.73;;;;;;;;;;5082024;28;20431;-81
2022/10/07 01:13:17;;;;;;;13.85;9.60;;;;;;;;;;5080921;28;20444;-82
2022/10/07 01:15:46;;;;;;;13.38;9.52;;;;;;;;;;5080495;28;20419;-80
2022/10/07 01:18:15;;;;;;;18.10;9.73;;;;;;;;;;5081968;28;20858;-80
2022/10/07 01:20:47;;;;;;;15.48;10.02;;;;;;;;;;5077380;28;20418;-80
2022/10/07 01:23:24;;;;;;;17.38;11.15;;;;;;;;;;5080465;28;20431;-83
2022/10/07 01:26:14;;;;;;;19.13;10.43;;;;;;;;;;5079225;28;20426;-83
2022/10/07 01:28:45;;;;;;;16.48;10.70;;;;;;;;;;5081021;28;20424;-81
2022/10/07 01:31:15;;;;;;;14.70;10.15;;;;;;;;;;5080277;28;20445;-83
2022/10/07 01:33:43;;;;;;;16.57;10.57;;;;;;;;;;5081549;28;20458;-83
2022/10/07 01:36:14;;;;;;;16.20;10.27;;;;;;;;;;5079763;28;20431;-82
2022/10/07 01:38:43;;;;;;;18.08;10.95;;;;;;;;;;5065939;28;20420;-83
2022/10/07 01:41:13;;;;;;;15.38;9.70;;;;;;;;;;5078662;28;20999;-82
2022/10/07 01:43:42;;;;;;;14.50;9.95;;;;;;;;;;5083800;28;20510;-83
2022/10/07 01:46:10;;;;;;;14.18;9.60;;;;;;;;;;5081458;28;20424;-81
2022/10/07 01:48:37;;;;;;;15.60;9.10;;;;;;;;;;5081385;28;20426;-81
2022/10/07 01:51:06;;;;;;;15.75;9.48;;;;;;;;;;5081509;27;20773;-82
2022/10/07 01:53:36;;;;;;;13.85;9.30;;;;;;;;;;5081834;28;20441;-83
2022/10/07 01:56:12;;;;;;;13.80;10.02;;;;;;;;;;5071219;28;20432;-84
2022/10/07 01:58:48;;;;;;;16.37;10.70;;;;;;;;;;5082314;28;20407;-81
2022/10/07 02:01:17;;;;;;;15.30;9.40;;;;;;;;;;5082365;28;20473;-83
2022/10/07 02:03:54;;;;;;;13.30;10.40;;;;;;;;;;5080610;28;20443;-83
2022/10/07 02:06:24;;;;;;;12.85;10.10;;;;;;;;;;5064747;28;20441;-83
2022/10/07 02:08:51;;;;;;;15.57;9.50;;;;;;;;;;5081670;28;20419;-81
2022/10/07 02:11:20;;;;;;;12.63;8.68;;;;;;;;;;5084183;28;20431;-81
2022/10/07 02:13:54;;;;;;;17.40;9.55;;;;;;;;;;5084581;28;20506;-81
2022/10/07 02:16:24;;;;;;;17.17;9.40;;;;;;;;;;5079566;28;21067;-81
2022/10/07 02:18:52;;;;;;;15.02;9.45;;;;;;;;;;5083267;28;20415;-81
2022/10/07 02:21:20;;;;;;;14.40;9.38;;;;;;;;;;5082605;27;20444;-81
2022/10/07 02:23:48;;;;;;;11.32;8.68;;;;;;;;;;5065263;28;20481;-81
2022/10/07 02:26:16;;;;;;;12.82;8.70;;;;;;;;;;5064490;28;20424;-81
2022/10/07 02:28:43;;;;;;;16.40;9.23;;;;;;;;;;5082652;28;20431;-82
2022/10/07 02:31:13;;;;;;;13.20;8.30;;;;;;;;;;5082828;28;20469;-81
2022/10/07 02:33:41;;;;;;;15.02;8.82;;;;;;;;;;5081678;28;20510;-81
2022/10/07 02:36:10;;;;;;;11.68;8.13;;;;;;;;;;5079239;28;20420;-81
2022/10/07 02:38:38;;;;;;;14.95;8.70;;;;;;;;;;5063965;28;20419;-81
2022/10/07 02:41:07;;;;;;;12.63;7.57;;;;;;;;;;5080556;27;20418;-81
2022/10/07 02:43:36;;;;;;;12.80;8.05;;;;;;;;;;5078322;28;20427;-84
2022/10/07 02:46:06;;;;;;;12.32;7.85;;;;;;;;;;5081632;28;20430;-83
2022/10/07 02:48:38;;;;;;;11.10;7.32;;;;;;;;;;5079772;28;20430;-83
2022/10/07 02:51:06;;;;;;;10.68;6.90;;;;;;;;;;5084861;28;20420;-82
2022/10/07 02:53:33;;;;;;;12.98;7.28;;;;;;;;;;5079670;28;20449;-83
2022/10/07 02:56:00;;;;;;;8.90;6.40;;;;;;;;;;5059615;28;20429;-83
2022/10/07 02:58:27;;;;;;;14.05;6.50;;;;;;;;;;5080663;28;20419;-83
2022/10/07 03:00:56;;;;;;;14.48;7.07;;;;;;;;;;5080976;28;20426;-83
2022/10/07 03:03:23;;;;;;;11.00;6.43;;;;;;;;;;5064459;28;20905;-83
2022/10/07 03:05:51;;;;;;;16.95;6.50;;;;;;;;;;5064481;28;20440;-83
2022/10/07 03:08:20;;;;;;;13.38;6.15;;;;;;;;;;5078731;28;20514;-83
2022/10/07 03:10:46;;;;;;;11.80;6.40;;;;;;;;;;5079773;28;20410;-81
2022/10/07 03:13:14;;;;;;;10.70;5.65;;;;;;;;;;5082692;28;20421;-82
2022/10/07 03:15:41;;;;;;;11.57;5.50;;;;;;;;;;5080494;28;20433;-81
2022/10/07 03:18:24;;;;;;;11.80;5.82;;;;;;;;;;5085777;28;20406;-83
2022/10/07 03:20:54;;;;;;;9.70;5.30;;;;;;;;;;5059716;28;20473;-83
2022/10/07 03:23:20;;;;;;;7.30;5.20;;;;;;;;;;5079665;28;20554;-80
2022/10/07 03:25:48;;;;;;;9.48;4.97;;;;;;;;;;5081564;27;20501;-81
2022/10/07 03:28:14;;;;;;;8.50;4.60;;;;;;;;;;5075805;28;20432;-81
2022/10/07 03:30:41;;;;;;;10.65;5.10;;;;;;;;;;5061265;28;20418;-83
2022/10/07 03:33:07;;;;;;;8.85;5.07;;;;;;;;;;5047707;28;20461;-82
2022/10/07 03:35:33;;;;;;;13.63;5.60;;;;;;;;;;5079768;28;20418;-82
2022/10/07 03:38:01;;;;;;;8.52;4.70;;;;;;;;;;5078938;28;20936;-83
2022/10/07 03:40:28;;;;;;;8.63;4.65;;;;;;;;;;5081379;28;20459;-83
2022/10/07 03:42:54;;;;;;;11.50;4.90;;;;;;;;;;5081307;28;20429;-83
2022/10/07 03:45:20;;;;;;;9.67;4.50;;;;;;;;;;5081219;27;20420;-83
2022/10/07 03:47:47;;;;;;;11.43;4.70;;;;;;;;;;5088679;28;20409;-83
2022/10/07 03:50:14;;;;;;;10.43;4.90;;;;;;;;;;5066271;28;20418;-84
2022/10/07 03:52:40;;;;;;;9.18;4.85;;;;;;;;;;5082009;28;20829;-83
2022/10/07 03:55:09;;;;;;;11.20;3.97;;;;;;;;;;5085549;27;20946;-83
2022/10/07 03:57:50;;;;;;;10.23;4.60;;;;;;;;;;5083801;28;20428;-83
2022/10/07 04:00:17;;;;;;;7.15;4.07;;;;;;;;;;5082100;28;20964;-83
2022/10/07 04:02:43;;;;;;;11.32;4.30;;;;;;;;;;5083550;28;20427;-83
2022/10/07 04:05:10;;;;;;;10.57;4.57;;;;;;;;;;5065156;28;20430;-83
2022/10/07 04:07:36;;;;;;;15.98;4.50;;;;;;;;;;5083606;28;20419;-83
2022/10/07 04:10:02;;;;;;;12.93;4.20;;;;;;;;;;5082702;28;20414;-82
2022/10/07 04:12:32;;;;;;;10.43;4.30;;;;;;;;;;5081171;28;20428;-82
2022/10/07 04:15:00;;;;;;;12.48;4.45;;;;;;;;;;5084457;28;20935;-83
2022/10/07 04:17:27;;;;;;;9.30;4.43;;;;;;;;;;5084475;28;20426;-82
2022/10/07 04:19:53;;;;;;;8.95;4.40;;;;;;;;;;5085110;28;20443;-82
2022/10/07 04:22:19;;;;;;;8.70;4.57;;;;;;;;;;5083408;28;20423;-83
2022/10/07 04:25:32;;;;;;;11.25;4.53;;;;;;;;;;5084952;28;20402;-83
2022/10/07 04:27:33;;;;;;;8.87;4.00;;;;;;;;;;5082966;28;20510;-83
2022/10/07 04:30:00;;;;;;;10.65;4.50;;;;;;;;;;5082388;27;20419;-82
2022/10/07 04:32:26;;;;;;;13.48;4.80;;;;;;;;;;5083713;28;20811;-83
2022/10/07 04:34:53;;;;;;;9.77;4.20;;;;;;;;;;5081618;27;20421;-83
2022/10/07 04:37:19;;;;;;;7.70;4.65;;;;;;;;;;5084767;28;20427;-83
2022/10/07 04:39:45;;;;;;;10.48;4.53;;;;;;;;;;5083812;27;20413;-83
2022/10/07 04:43:17;;;;;;;10.88;4.85;;;;;;;;;;5075124;28;20923;-82
2022/10/07 04:45:00;;;;;;;15.93;5.57;;;;;;;;;;5083672;27;20912;-82
2022/10/07 04:47:26;;;;;;;9.48;4.90;;;;;;;;;;5084976;28;20430;-82
2022/10/07 04:49:54;;;;;;;14.48;4.88;;;;;;;;;;5081954;28;20415;-83
2022/10/07 04:52:20;;;;;;;13.95;5.15;;;;;;;;;;5082788;28;20431;-84
2022/10/07 04:54:48;;;;;;;15.02;4.90;;;;;;;;;;5086883;27;20418;-82
2022/10/07 04:57:14;;;;;;;11.48;5.57;;;;;;;;;;5065874;28;20422;-83
2022/10/07 04:59:41;;;;;;;11.03;4.90;;;;;;;;;;5084164;28;20422;-82
2022/10/07 05:02:09;;;;;;;10.75;4.35;;;;;;;;;;5083616;28;20435;-81
2022/10/07 05:04:35;;;;;;;13.98;4.90;;;;;;;;;;5083049;27;20404;-82
2022/10/07 05:07:02;;;;;;;11.55;4.93;;;;;;;;;;5067247;28;21760;-83
2022/10/07 05:09:28;;;;;;;9.23;4.40;;;;;;;;;;5084632;28;20916;-82
2022/10/07 05:11:55;;;;;;;10.30;4.72;;;;;;;;;;5086166;28;20406;-82
2022/10/07 05:14:21;;;;;;;12.25;5.88;;;;;;;;;;5081476;27;20472;-84
2022/10/07 05:16:47;;;;;;;14.05;5.70;;;;;;;;;;5082196;28;20428;-84
2022/10/07 05:19:15;;;;;;;9.85;5.18;;;;;;;;;;5087636;27;20430;-83
2022/10/07 05:21:43;;;;;;;11.75;5.95;;;;;;;;;;5085456;28;20927;-84
2022/10/07 05:24:09;;;;;;;12.73;6.93;;;;;;;;;;5083495;28;20421;-83
2022/10/07 05:26:35;;;;;;;16.40;6.43;;;;;;;;;;5084380;27;20423;-81
2022/10/07 05:29:02;;;;;;;15.38;6.50;;;;;;;;;;5085087;28;21344;-81
2022/10/07 05:31:29;;;;;;;14.63;6.50;;;;;;;;;;5082069;28;20954;-81
2022/10/07 05:33:55;;;;;;;13.37;7.20;;;;;;;;;;5084652;28;20423;-82
2022/10/07 05:36:23;;;;;;;12.45;6.78;;;;;;;;;;5067030;28;20438;-82
2022/10/07 05:38:49;;;;;;;12.32;7.25;;;;;;;;;;5086091;28;20422;-82
2022/10/07 05:41:16;;;;;;;14.68;6.80;;;;;;;;;;5086233;28;20418;-82
2022/10/07 05:43:43;;;;;;;17.65;7.70;;;;;;;;;;5067240;28;20459;-82
2022/10/07 05:46:11;;;;;;;19.60;6.97;;;;;;;;;;5082477;28;20469;-82
2022/10/07 05:48:37;;;;;;;13.50;6.10;;;;;;;;;;5083539;28;20431;-82
2022/10/07 05:51:04;;;;;;;12.25;6.72;;;;;;;;;;5080736;28;20414;-81
2022/10/07 05:53:32;;;;;;;12.90;6.95;;;;;;;;;;5082679;28;20913;-82
2022/10/07 05:55:58;;;;;;;18.52;7.18;;;;;;;;;;5083137;28;20435;-81
2022/10/07 05:58:25;;;;;;;15.70;6.90;;;;;;;;;;5082999;28;20418;-81
2022/10/07 06:00:53;;;;;;;17.48;7.40;;;;;;;;;;5078981;28;20427;-81
2022/10/07 06:03:19;;;;;;;20.50;7.30;;;;;;;;;;5064548;28;20428;-82
2022/10/07 06:05:46;;;;;;;14.82;7.25;;;;;;;;;;5065358;28;20410;-81
2022/10/07 06:08:12;;;;;;;17.83;7.35;;;;;;;;;;5083158;28;20422;-81
2022/10/07 06:13:24;;;;;;;19.33;7.47;;;;;;;;;;5081996;28;20423;-81
2022/10/07 06:15:50;;;;;;;17.95;7.82;;;;;;;;;;5080235;27;20426;-82
2022/10/07 06:18:16;;;;;;;16.73;7.25;;;;;;;;;;5086416;28;20414;-82
2022/10/07 06:20:43;;;;;;;16.40;7.20;;;;;;;;;;5065573;28;20497;-81
2022/10/07 06:23:09;;;;;;;14.40;6.97;;;;;;;;;;5066776;28;20415;-81
2022/10/07 06:25:35;;;;;;;18.45;7.65;;;;;;;;;;5083544;27;20431;-82
2022/10/07 06:28:03;;;;;;;14.18;6.72;;;;;;;;;;5083258;28;20431;-81
2022/10/07 06:30:29;;;;;;;15.43;7.07;;;;;;;;;;5081017;28;20412;-82
2022/10/07 06:32:56;;;;;;;13.27;6.50;;;;;;;;;;5082420;28;20420;-82
2022/10/07 06:35:23;;;;;;;17.08;7.57;;;;;;;;;;5067522;28;20416;-82
2022/10/07 06:37:49;;;;;;;21.65;7.85;;;;;;;;;;5084143;28;20419;-82
2022/10/07 06:40:15;;;;;;;16.80;7.90;;;;;;;;;;5082367;27;20433;-83
2022/10/07 06:42:42;;;;;;;19.80;8.55;;;;;;;;;;5082394;28;20430;-81
2022/10/07 06:45:12;;;;;;;14.90;7.38;;;;;;;;;;5078829;27;20435;-81
2022/10/07 06:47:38;;;;;;;16.83;8.23;;;;;;;;;;5082200;28;20903;-82
2022/10/07 06:50:05;;;;;;;14.85;7.05;;;;;;;;;;5079637;28;20437;-81
2022/10/07 06:52:31;;;;;;;15.30;7.32;;;;;;;;;;5081953;28;20405;-81
2022/10/07 06:54:57;;;;;;;13.77;7.18;;;;;;;;;;5081652;28;20402;-81
2022/10/07 06:57:24;;;;;;;16.53;7.87;;;;;;;;;;5081978;28;20457;-81
2022/10/07 06:59:50;;;;;;;18.20;7.43;;;;;;;;;;5077303;27;20522;-81
2022/10/07 07:02:18;;;;;;;13.55;6.95;;;;;;;;;;5079749;28;20425;-82
2022/10/07 07:04:44;;;;;;;16.58;7.20;;;;;;;;;;5083079;28;20792;-81
2022/10/07 07:07:11;;;;;;;16.33;7.20;;;;;;;;;;5080890;28;20538;-82
2022/10/07 07:09:37;;;;;;;18.48;7.45;;;;;;;;;;5079038;28;20399;-82
2022/10/07 07:12:04;;;;;;;17.17;7.30;;;;;;;;;;5081977;28;20446;-83
2022/10/07 07:14:33;;;;;;;16.80;8.10;;;;;;;;;;5079590;27;20431;-81
2022/10/07 07:17:00;;;;;;;14.93;7.60;;;;;;;;;;5082469;28;20821;-81
2022/10/07 07:19:28;;;;;;;14.48;7.00;;;;;;;;;;5079552;28;20422;-80
2022/10/07 07:21:55;;;;;;;16.67;7.20;;;;;;;;;;5080074;28;20469;-81
2022/10/07 07:24:21;;;;;;;17.95;6.95;;;;;;;;;;5079369;27;20442;-81
2022/10/07 07:26:47;;;;;;;19.92;7.90;;;;;;;;;;5083329;28;20420;-81
2022/10/07 07:29:15;;;;;;;15.83;7.30;;;;;;;;;;5063997;27;20437;-81
2022/10/07 07:31:42;;;;;;;19.48;6.90;;;;;;;;;;5081692;28;20463;-81
2022/10/07 07:34:10;;;;;;;21.80;7.90;;;;;;;;;;5084554;28;20426;-82
2022/10/07 07:36:38;;;;;;;12.63;6.70;;;;;;;;;;5080877;28;20426;-83
2022/10/07 07:39:05;;;;;;;18.20;7.35;;;;;;;;;;5081494;28;20406;-81
2022/10/07 07:41:34;;;;;;;13.20;6.10;;;;;;;;;;5081694;28;20979;-81
2022/10/07 07:44:01;;;;;;;21.17;6.38;;;;;;;;;;5082651;28;20430;-82
2022/10/07 07:46:29;;;;;;;15.35;6.40;;;;;;;;;;5081144;27;20425;-82
2022/10/07 07:48:57;;;;;;;12.90;6.63;;;;;;;;;;5063511;28;20406;-81
2022/10/07 07:51:24;;;;;;;22.17;6.20;;;;;;;;;;5059726;28;20436;-81
2022/10/07 07:53:52;;;;;;;17.20;6.60;;;;;;;;;;5082923;28;20455;-80
2022/10/07 07:56:19;;;;;;;18.20;6.32;;;;;;;;;;5079855;28;20411;-81
2022/10/07 07:58:46;;;;;;;17.73;5.40;;;;;;;;;;5081165;28;20427;-82
2022/10/07 08:01:13;;;;;;;16.27;6.30;;;;;;;;;;5083148;28;20411;-80
2022/10/07 08:03:41;;;;;;;16.85;6.00;;;;;;;;;;5084269;28;20413;-81
2022/10/07 08:06:09;;;;;;;13.83;5.43;;;;;;;;;;5062520;28;20440;-81
2022/10/07 08:08:35;;;;;;;17.10;5.97;;;;;;;;;;5067242;28;20417;-81
2022/10/07 08:11:08;;;;;;;14.43;5.63;;;;;;;;;;5082645;28;20415;-81
2022/10/07 08:13:40;;;;;;;13.02;5.20;;;;;;;;;;5062525;28;20827;-82
2022/10/07 08:16:07;;;;;;;16.08;5.90;;;;;;;;;;5078470;28;20423;-82
2022/10/07 08:18:33;;;;;;;16.00;5.73;;;;;;;;;;5081762;28;20500;-82
2022/10/07 08:21:04;;;;;;;13.98;4.93;;;;;;;;;;5081982;28;20408;-81
2022/10/07 08:23:31;;;;;;;13.80;5.75;;;;;;;;;;5065415;28;20414;-80
2022/10/07 08:25:58;;;;;;;17.10;5.15;;;;;;;;;;5076874;28;20410;-81
2022/10/07 08:28:26;;;;;;;20.08;5.13;;;;;;;;;;5079603;28;20421;-81
2022/10/07 08:30:53;;;;;;;15.82;5.53;;;;;;;;;;5065958;28;20418;-80
2022/10/07 08:33:20;;;;;;;14.60;5.40;;;;;;;;;;5085205;28;20418;-81
2022/10/07 08:35:48;;;;;;;14.48;5.30;;;;;;;;;;5085875;28;20411;-81
2022/10/07 08:38:15;;;;;;;12.68;4.93;;;;;;;;;;5083830;28;20448;-82
2022/10/07 08:40:47;;;;;;;15.30;5.50;;;;;;;;;;5086278;27;20416;-80
2022/10/07 08:43:14;;;;;;;14.52;5.25;;;;;;;;;;5078550;28;20800;-80
2022/10/07 08:45:43;;;;;;;10.00;4.70;;;;;;;;;;5081791;28;20426;-79
2022/10/07 08:48:13;;;;;;;17.13;5.70;;;;;;;;;;5082937;28;20430;-80
2022/10/07 08:50:45;;;;;;;11.77;4.88;;;;;;;;;;5080336;28;20485;-81
2022/10/07 08:53:19;;;;;;;15.68;5.10;;;;;;;;;;5076902;28;20799;-81
2022/10/07 08:55:51;;;;;;;12.27;4.80;;;;;;;;;;5075617;27;20491;-81
2022/10/07 08:58:33;;;;;;;14.10;4.97;;;;;;;;;;5081831;28;20485;-80
2022/10/07 09:01:06;;;;;;;14.70;4.90;;;;;;;;;;5081655;28;20427;-82
2022/10/07 09:03:36;;;;;;;10.90;5.10;;;;;;;;;;5083584;28;21034;-81
2022/10/07 09:06:04;;;;;;;15.48;5.00;;;;;;;;;;5068102;28;20435;-81
2022/10/07 09:08:34;;;;;;;13.98;4.63;;;;;;;;;;5083938;28;20913;-81
2022/10/07 09:11:14;;;;;;;14.60;4.43;;;;;;;;;;5075390;28;20917;-81
2022/10/07 09:13:42;;;;;;;11.10;4.20;;;;;;;;;;5067998;28;20935;-82
2022/10/07 09:16:12;;;;;;;14.70;4.73;;;;;;;;;;5069067;28;20456;-82
2022/10/07 09:18:42;;;;;;;13.13;5.20;;;;;;;;;;5066593;28;20463;-83
2022/10/07 09:21:15;;;;;;;14.23;4.60;;;;;;;;;;5084959;28;20428;-82
2022/10/07 09:23:42;;;;;;;18.17;5.07;;;;;;;;;;5083601;28;20993;-82
2022/10/07 09:26:10;;;;;;;13.05;4.82;;;;;;;;;;5083257;28;21551;-81
2022/10/07 09:28:37;;;;;;;12.30;4.63;;;;;;;;;;5088868;28;20431;-81
2022/10/07 09:31:03;;;;;;;11.57;4.10;;;;;;;;;;5049161;28;20441;-82
2022/10/07 09:33:33;;;;;;;13.32;3.63;;;;;;;;;;5081702;28;20436;-82
2022/10/07 09:36:05;;;;;;;15.02;4.85;;;;;;;;;;5079756;27;20434;-82
2022/10/07 09:38:34;;;;;;;14.65;3.72;;;;;;;;;;5084790;28;20422;-81
2022/10/07 09:41:16;;;;;;;17.02;4.22;;;;;;;;;;5083687;27;20442;-81
2022/10/07 09:43:52;;;;;;;14.13;4.05;;;;;;;;;;5085633;28;20434;-81
2022/10/07 09:46:26;;;;;;;14.63;3.80;;;;;;;;;;5081801;28;20804;-81
2022/10/07 09:48:54;;;;;;;9.37;3.70;;;;;;;;;;5069096;28;20419;-80
2022/10/07 09:51:25;;;;;;;13.73;3.70;;;;;;;;;;5081159;27;20419;-81
2022/10/07 09:53:56;;;;;;;13.77;4.18;;;;;;;;;;5083626;28;20432;-81
2022/10/07 09:56:32;;;;;;;14.63;3.95;;;;;;;;;;5084695;27;20472;-82
2022/10/07 09:59:14;;;;;;;11.48;4.00;;;;;;;;;;5081402;28;20426;-81
2022/10/07 10:01:41;;;;;;;14.98;3.83;;;;;;;;;;5059500;28;20426;-81
2022/10/07 10:04:15;;;;;;;11.10;3.90;;;;;;;;;;5062031;28;20482;-81
2022/10/07 10:06:45;;;;;;;7.75;3.28;;;;;;;;;;5056433;28;20434;-82
2022/10/07 10:09:11;;;;;;;11.30;3.30;;;;;;;;;;5063910;28;20417;-81
2022/10/07 10:11:38;;;;;;;12.10;3.42;;;;;;;;;;5060760;28;21019;-81
2022/10/07 10:14:25;;;;;;;11.90;3.80;;;;;;;;;;5063696;28;20435;-82
2022/10/07 10:16:52;;;;;;;11.50;3.80;;;;;;;;;;5061011;28;20483;-82
2022/10/07 10:19:23;;;;;;;13.98;3.70;;;;;;;;;;5061612;28;20438;-82
2022/10/07 10:21:51;;;;;;;9.85;3.38;;;;;;;;;;5065084;28;20425;-81
2022/10/07 10:26:24;;;;;;;13.33;3.50;;;;;;;;;;5062089;28;20456;-81
2022/10/07 10:27:05;;;;;;;11.38;3.20;;;;;;;;;;5061353;28;20429;-82
2022/10/07 10:29:37;;;;;;;12.88;3.35;;;;;;;;;;5061094;28;20408;-82
2022/10/07 10:32:21;;;;;;;11.52;3.17;;;;;;;;;;5058923;28;20436;-78
2022/10/07 10:34:53;;;;;;;12.95;3.80;;;;;;;;;;5061474;28;20498;-79
2022/10/07 10:37:20;;;;;;;9.40;3.00;;;;;;;;;;5060844;28;20425;-79
2022/10/07 10:39:56;;;;;;;10.52;3.17;;;;;;;;;;5064194;28;20949;-88
2022/10/07 10:42:26;;;;;;;9.75;2.85;;;;;;;;;;5062386;28;20519;-82
2022/10/07 10:45:06;;;;;;;11.40;2.95;;;;;;;;;;5063508;28;20424;-81
2022/10/07 10:47:39;;;;;;;12.02;3.28;;;;;;;;;;5066979;28;20465;-81
2022/10/07 10:50:14;;;;;;;11.77;3.75;;;;;;;;;;5063515;28;20420;-81
2022/10/07 10:52:48;;;;;;;9.97;3.30;;;;;;;;;;5065421;28;20461;-80
2022/10/07 10:55:20;;;;;;;9.60;2.90;;;;;;;;;;5064941;28;20742;-80
2022/10/07 10:57:51;;;;;;;11.48;3.50;;;;;;;;;;5066523;28;20419;-81
2022/10/07 11:00:19;;;;;;;11.27;2.90;;;;;;;;;;5066728;28;20412;-80
2022/10/07 11:03:03;;;;;;;12.70;3.42;;;;;;;;;;5067097;28;20438;-80
2022/10/07 11:05:33;;;;;;;8.30;2.85;;;;;;;;;;5061351;28;20493;-84
2022/10/07 11:08:02;;;;;;;10.88;3.40;;;;;;;;;;5066555;28;20948;-82
2022/10/07 11:10:32;;;;;;;8.95;3.15;;;;;;;;;;5063901;28;20429;-81
2022/10/07 11:13:01;;;;;;;9.80;3.60;;;;;;;;;;5063410;28;20468;-80
2022/10/07 11:15:32;;;;;;;11.82;2.50;;;;;;;;;;5066338;28;20413;-80
2022/10/07 11:18:02;;;;;;;11.50;3.17;;;;;;;;;;5062793;28;20425;-80
2022/10/07 11:20:30;;;;;;;12.53;3.27;;;;;;;;;;5065936;28;20977;-81
2022/10/07 11:23:00;;;;;;;11.50;3.05;;;;;;;;;;5063641;28;20483;-84
2022/10/07 11:25:32;;;;;;;13.82;3.17;;;;;;;;;;5060101;28;20422;-80
2022/10/07 11:28:03;;;;;;;11.05;3.05;;;;;;;;;;5061445;28;20437;-81
2022/10/07 11:30:33;;;;;;;8.48;2.80;;;;;;;;;;5058762;28;20419;-83
2022/10/07 11:33:01;;;;;;;9.00;2.95;;;;;;;;;;5057724;28;20989;-81
2022/10/07 11:35:30;;;;;;;10.30;3.20;;;;;;;;;;5063885;28;20424;-82
2022/10/07 11:38:00;;;;;;;10.27;3.03;;;;;;;;;;5065944;28;20542;-82
2022/10/07 11:40:28;;;;;;;11.95;3.03;;;;;;;;;;5059132;28;20418;-82
2022/10/07 11:42:56;;;;;;;9.18;2.80;;;;;;;;;;5063523;28;20424;-81
2022/10/07 11:45:25;;;;;;;13.07;3.67;;;;;;;;;;5065138;28;20425;-80
2022/10/07 11:47:53;;;;;;;13.18;3.00;;;;;;;;;;5064196;28;20876;-80
2022/10/07 11:50:22;;;;;;;8.23;2.80;;;;;;;;;;5061379;28;20426;-81
2022/10/07 11:52:49;;;;;;;8.60;2.30;;;;;;;;;;5062772;28;20429;-80
2022/10/07 11:55:22;;;;;;;14.00;3.50;;;;;;;;;;5064541;28;20425;-81
2022/10/07 11:57:52;;;;;;;10.93;2.93;;;;;;;;;;5067361;28;20420;-81
2022/10/07 12:00:24;;;;;;;10.77;2.85;;;;;;;;;;5065557;28;20425;-80
2022/10/07 12:02:51;;;;;;;6.93;2.73;;;;;;;;;;5070370;28;20429;-80
2022/10/07 12:05:36;;;;;;;10.55;2.90;;;;;;;;;;5074694;28;20419;-80
2022/10/07 12:08:23;;;;;;;10.63;2.70;;;;;;;;;;5069672;28;20428;-81
2022/10/07 12:10:53;;;;;;;11.55;2.90;;;;;;;;;;5072224;28;20440;-80
2022/10/07 12:13:36;;;;;;;11.15;3.20;;;;;;;;;;5070902;28;20423;-81
2022/10/07 12:16:18;;;;;;;12.77;2.83;;;;;;;;;;5070051;28;20428;-81
2022/10/07 12:19:05;;;;;;;8.02;2.88;;;;;;;;;;5070710;28;20427;-82
2022/10/07 12:21:52;;;;;;;10.85;2.60;;;;;;;;;;5069344;28;20426;-80
2022/10/07 12:24:20;;;;;;;11.02;3.10;;;;;;;;;;5070342;28;20923;-80
2022/10/07 12:26:51;;;;;;;12.43;3.03;;;;;;;;;;5066499;28;20416;-82
2022/10/07 12:29:22;;;;;;;6.80;2.90;;;;;;;;;;5067229;28;20459;-80
2022/10/07 12:31:49;;;;;;;9.15;2.90;;;;;;;;;;5068307;28;20493;-81
2022/10/07 12:34:22;;;;;;;13.05;3.03;;;;;;;;;;5070467;28;20425;-82
2022/10/07 12:36:48;;;;;;;13.38;3.20;;;;;;;;;;5067653;28;20440;-80
2022/10/07 12:39:32;;;;;;;10.18;2.80;;;;;;;;;;5067704;28;20431;-81
2022/10/07 12:42:01;;;;;;;9.53;2.50;;;;;;;;;;5070985;28;21096;-79
2022/10/07 12:44:31;;;;;;;12.02;3.53;;;;;;;;;;5070397;28;20404;-83
2022/10/07 12:46:59;;;;;;;8.70;2.85;;;;;;;;;;5065906;28;20440;-80
2022/10/07 12:49:31;;;;;;;7.28;3.05;;;;;;;;;;5068164;28;20411;-83
2022/10/07 12:51:59;;;;;;;6.65;2.85;;;;;;;;;;5069290;28;20427;-81
2022/10/07 12:54:30;;;;;;;9.63;2.60;;;;;;;;;;5064321;28;20411;-81
2022/10/07 12:57:00;;;;;;;10.43;3.65;;;;;;;;;;5071311;28;20422;-80
2022/10/07 12:59:47;;;;;;;12.03;3.10;;;;;;;;;;5064495;28;20413;-83
2022/10/07 13:02:34;;;;;;;10.40;2.80;;;;;;;;;;5069476;28;20424;-81
2022/10/07 13:05:15;;;;;;;10.40;3.03;;;;;;;;;;5067292;28;20417;-82
2022/10/07 13:08:06;;;;;;;8.40;2.47;;;;;;;;;;5070116;28;20495;-81
2022/10/07 13:10:39;;;;;;;12.63;3.35;;;;;;;;;;5050505;28;20434;-81
2022/10/07 13:13:09;;;;;;;7.55;2.78;;;;;;;;;;5067218;28;20427;-82
2022/10/07 13:15:41;;;;;;;9.20;2.72;;;;;;;;;;5067022;28;20419;-81
2022/10/07 13:18:13;;;;;;;7.68;3.10;;;;;;;;;;5065683;28;20508;-83
2022/10/07 13:21:00;;;;;;;8.50;3.00;;;;;;;;;;5065171;28;20427;-82
2022/10/07 13:23:28;;;;;;;7.60;2.80;;;;;;;;;;5064484;28;20432;-81
2022/10/07 13:25:56;;;;;;;8.60;3.40;;;;;;;;;;5068236;28;20435;-81
2022/10/07 13:28:30;;;;;;;7.03;2.78;;;;;;;;;;5064087;28;21153;-82
2022/10/07 13:31:11;;;;;;;9.48;3.30;;;;;;;;;;5063420;28;20440;-82
2022/10/07 13:33:39;;;;;;;9.10;3.10;;;;;;;;;;5072327;28;20437;-80
2022/10/07 13:36:07;;;;;;;8.95;2.80;;;;;;;;;;5071388;28;20420;-80
2022/10/07 13:38:33;;;;;;;11.02;2.90;;;;;;;;;;5071881;28;20431;-79
2022/10/07 13:41:02;;;;;;;7.35;2.60;;;;;;;;;;5073663;28;20495;-81
2022/10/07 13:43:30;;;;;;;9.88;3.10;;;;;;;;;;5074608;28;20431;-79
2022/10/07 13:46:00;;;;;;;10.35;3.25;;;;;;;;;;5071439;28;20429;-80
2022/10/07 13:48:28;;;;;;;8.30;2.83;;;;;;;;;;5072962;28;20439;-79
2022/10/07 13:50:56;;;;;;;10.60;3.00;;;;;;;;;;5067239;28;20414;-81
2022/10/07 13:53:25;;;;;;;8.45;3.00;;;;;;;;;;5069245;28;20913;-81
2022/10/07 13:56:03;;;;;;;9.50;3.10;;;;;;;;;;5068703;28;20436;-81
2022/10/07 13:58:34;;;;;;;8.32;3.17;;;;;;;;;;5067208;28;20415;-80
2022/10/07 14:01:02;;;;;;;9.98;2.95;;;;;;;;;;5069114;28;20478;-81
2022/10/07 14:03:31;;;;;;;11.38;2.95;;;;;;;;;;5072715;28;20414;-81
2022/10/07 14:05:57;;;;;;;9.35;2.70;;;;;;;;;;5070362;28;20800;-81
2022/10/07 14:08:26;;;;;;;8.57;2.70;;;;;;;;;;5070520;28;20437;-80
2022/10/07 14:10:56;;;;;;;7.72;2.58;;;;;;;;;;5055519;28;20425;-81
2022/10/07 14:13:22;;;;;;;7.95;2.60;;;;;;;;;;5068337;28;20820;-80
2022/10/07 14:15:55;;;;;;;8.25;2.40;;;;;;;;;;5070035;28;20424;-80
2022/10/07 14:18:23;;;;;;;8.48;2.60;;;;;;;;;;5070248;28;20420;-81
2022/10/07 14:20:51;;;;;;;10.23;2.58;;;;;;;;;;5070347;28;20422;-80
2022/10/07 14:23:20;;;;;;;9.52;3.22;;;;;;;;;;5071474;28;20429;-80
2022/10/07 14:25:51;;;;;;;11.52;3.05;;;;;;;;;;5069262;28;20449;-80
2022/10/07 14:28:19;;;;;;;9.77;3.03;;;;;;;;;;5067860;28;20428;-80
2022/10/07 14:36:31;;;;;;;8.70;2.90;;;;;;;;;;5026031;28;20456;-81
2022/10/07 14:39:02;;;;;;;7.88;2.72;;;;;;;;;;5053899;28;20512;-80
2022/10/07 14:41:29;;;;;;;12.05;2.80;;;;;;;;;;5093139;28;20424;-81
2022/10/07 14:43:59;;;;;;;9.65;2.85;;;;;;;;;;5094405;28;20482;-81
2022/10/07 14:46:26;;;;;;;11.20;2.63;;;;;;;;;;5091297;28;20477;-80
2022/10/07 14:48:55;;;;;;;9.20;2.28;;;;;;;;;;5094715;28;20422;-80
2022/10/07 14:51:22;;;;;;;7.10;2.33;;;;;;;;;;5063781;28;20506;-81
2022/10/07 14:53:50;;;;;;;7.47;2.50;;;;;;;;;;5061052;28;20411;-83
2022/10/07 14:56:22;;;;;;;6.68;2.60;;;;;;;;;;5061288;28;20526;-80